createdAt,value
2023-02-12T00:04:03.908Z,36.80
2023-02-12T00:07:53.017Z,39.10
2023-02-12T00:11:48.614Z,34.80
2023-02-12T00:31:25.447Z,38.90
2023-02-12T00:35:13.499Z,37.90
2023-02-12T00:39:00.987Z,38.80
2023-02-12T00:42:49.385Z,37.70
2023-02-12T00:46:37.472Z,37.10
2023-02-12T00:50:25.371Z,37.70
2023-02-12T00:54:02.742Z,37.50
2023-02-12T00:57:51.446Z,38.80
2023-02-12T01:01:39.916Z,37.30
2023-02-12T01:05:28.314Z,36.20
2023-02-12T01:09:16.784Z,37.40
2023-02-12T01:13:04.368Z,37.40
2023-02-12T01:17:03.070Z,40.60
2023-02-12T01:20:52.409Z,39.10
2023-02-12T01:25:29.506Z,38.60
2023-02-12T01:29:20.493Z,36.70
2023-02-12T01:33:08.025Z,38.30
2023-02-12T01:36:55.472Z,37.10
2023-02-12T01:52:35.118Z,37.70
2023-02-12T01:56:23.982Z,38.30
2023-02-12T02:00:09.531Z,38.00
2023-02-12T02:03:58.683Z,35.70
2023-02-12T02:07:53.701Z,36.10
2023-02-12T02:11:41.751Z,36.80
2023-02-12T02:15:31.116Z,39.60
2023-02-12T02:31:42.991Z,35.10
2023-02-12T02:35:46.146Z,34.10
2023-02-12T02:39:37.526Z,36.40
2023-02-12T02:51:25.714Z,36.50
2023-02-12T02:55:14.812Z,35.90
2023-02-12T02:59:06.743Z,31.40
2023-02-12T03:03:10.972Z,29.50
2023-02-12T03:15:14.765Z,32.90
2023-02-12T03:19:06.867Z,32.90
2023-02-12T03:23:08.008Z,31.70
2023-02-12T03:34:58.794Z,32.80
2023-02-12T03:38:51.068Z,32.10
2023-02-12T03:42:43.062Z,31.40
2023-02-12T03:54:37.438Z,33.50
2023-02-12T03:58:26.460Z,29.30
2023-02-12T04:02:15.829Z,30.30
2023-02-12T04:06:05.097Z,31.50
2023-02-12T04:09:54.066Z,32.00
2023-02-12T04:14:01.498Z,28.70
2023-02-12T04:18:00.923Z,28.50
2023-02-12T04:30:03.159Z,34.80
2023-02-12T04:33:52.504Z,33.00
2023-02-12T04:37:50.712Z,30.20
2023-02-12T05:00:56.943Z,36.10
2023-02-12T05:04:46.378Z,31.90
2023-02-12T05:08:35.279Z,30.80
2023-02-12T05:12:24.630Z,30.40
2023-02-12T05:16:13.477Z,31.20
2023-02-12T05:20:02.410Z,33.00
2023-02-12T05:23:51.889Z,32.00
2023-02-12T05:27:41.039Z,31.70
2023-02-12T05:31:30.950Z,30.90
2023-02-12T05:35:20.880Z,28.30
2023-02-12T05:39:09.953Z,32.60
2023-02-12T05:42:59.035Z,39.10
2023-02-12T05:46:48.453Z,36.50
2023-02-12T05:50:37.662Z,40.00
2023-02-12T05:54:26.702Z,37.30
2023-02-12T05:58:16.200Z,37.60
2023-02-12T06:02:14.460Z,37.30
2023-02-12T06:06:03.733Z,40.10
2023-02-12T06:09:52.782Z,39.60
2023-02-12T06:13:42.859Z,37.10
2023-02-12T06:17:34.197Z,38.20
2023-02-12T06:21:01.837Z,38.60
2023-02-12T06:40:24.406Z,34.60
2023-02-12T07:03:42.690Z,39.90
2023-02-12T07:07:19.419Z,39.30
2023-02-12T07:10:59.677Z,37.40
2023-02-12T07:14:47.497Z,35.80
2023-02-12T07:18:35.441Z,39.30
2023-02-12T07:22:24.136Z,38.60
2023-02-12T07:25:54.501Z,40.50
2023-02-12T07:29:50.196Z,38.30
2023-02-12T07:41:05.461Z,35.40
2023-02-12T07:55:14.027Z,29.40
2023-02-12T07:59:02.666Z,34.20
2023-02-12T08:02:38.121Z,31.20
2023-02-12T08:22:06.407Z,33.90
2023-02-12T08:25:36.890Z,30.70
2023-02-12T08:29:14.580Z,30.40
2023-02-12T08:33:04.029Z,31.80
2023-02-12T08:36:52.985Z,27.40
2023-02-12T08:44:22.048Z,32.50
2023-02-12T08:48:12.949Z,31.30
2023-02-12T08:52:09.929Z,35.70
2023-02-12T09:18:08.514Z,36.00
2023-02-12T09:52:30.290Z,23.00
2023-02-12T09:56:19.267Z,22.50
2023-02-12T09:59:57.033Z,20.50
2023-02-12T10:03:28.101Z,19.70
2023-02-12T10:06:50.278Z,22.90
2023-02-12T10:10:40.889Z,19.40
2023-02-12T10:14:51.406Z,21.50
2023-02-12T10:30:37.771Z,17.40
2023-02-12T10:34:34.540Z,19.00
2023-02-12T10:38:07.442Z,16.40
2023-02-12T10:41:47.829Z,16.00
2023-02-12T10:45:32.987Z,21.40
2023-02-12T10:49:21.799Z,19.60
2023-02-12T11:01:32.468Z,13.20
2023-02-12T11:05:24.368Z,14.20
2023-02-12T11:09:11.806Z,11.80
2023-02-12T11:21:20.524Z,21.00
2023-02-12T11:25:12.420Z,11.50
2023-02-12T11:29:02.341Z,10.60
2023-02-12T11:37:25.116Z,12.70
2023-02-12T11:41:06.496Z,24.40
2023-02-12T11:44:42.963Z,15.20
2023-02-12T11:48:31.549Z,12.00
2023-02-12T12:00:34.533Z,11.00
2023-02-12T12:04:20.315Z,10.90
2023-02-12T12:08:06.963Z,12.70
2023-02-12T12:11:27.226Z,10.60
2023-02-12T12:18:54.308Z,10.20
2023-02-12T12:22:44.624Z,10.40
2023-02-12T12:26:26.313Z,10.50
2023-02-12T12:30:15.198Z,9.50
2023-02-12T12:33:54.934Z,11.10
2023-02-12T12:37:43.485Z,11.30
2023-02-12T12:41:43.369Z,10.20
2023-02-12T12:57:52.918Z,9.90
2023-02-12T13:01:46.830Z,9.90
2023-02-12T13:05:48.663Z,27.20
2023-02-12T13:09:36.606Z,14.80
2023-02-12T13:13:10.603Z,44.60
2023-02-12T13:24:59.891Z,23.70
2023-02-12T13:28:48.872Z,14.40
2023-02-12T13:32:19.024Z,13.40
2023-02-12T13:36:08.643Z,22.10
2023-02-12T13:39:45.905Z,13.40
2023-02-12T13:43:50.694Z,12.60
2023-02-12T13:58:41.761Z,14.30
2023-02-12T14:02:36.653Z,12.60
2023-02-12T14:10:15.630Z,29.00
2023-02-12T14:14:14.209Z,14.10
2023-02-12T14:17:30.416Z,13.50
2023-02-12T14:29:54.444Z,21.80
2023-02-12T14:33:30.823Z,34.30
2023-02-12T14:36:54.081Z,19.90
2023-02-12T14:40:22.904Z,48.30
2023-02-12T14:44:00.116Z,39.50
2023-02-12T14:47:55.423Z,36.90
2023-02-12T14:51:00.863Z,101.90
2023-02-12T14:55:02.346Z,35.40
2023-02-12T14:59:21.016Z,24.30
2023-02-12T15:03:02.647Z,22.20
2023-02-12T15:06:07.744Z,27.10
2023-02-12T15:09:23.419Z,39.30
2023-02-12T15:13:12.770Z,39.30
2023-02-12T15:20:45.418Z,29.30
2023-02-12T16:12:29.814Z,42.90
2023-02-12T16:16:43.592Z,41.20
2023-02-12T16:20:35.495Z,39.80
2023-02-12T16:24:17.448Z,39.60
2023-02-12T16:39:40.590Z,50.60
2023-02-12T16:43:29.812Z,49.80
2023-02-12T16:59:05.550Z,69.50
2023-02-12T17:03:03.583Z,79.00
2023-02-12T17:06:52.696Z,103.40
2023-02-12T17:10:41.804Z,81.60
2023-02-12T17:14:31.242Z,80.90
2023-02-12T17:18:20.496Z,71.70
2023-02-12T17:22:09.485Z,71.50
2023-02-12T17:25:59.594Z,75.40
2023-02-12T17:33:17.967Z,111.10
2023-02-12T17:37:08.989Z,90.70
2023-02-12T17:44:28.264Z,61.00
2023-02-12T17:48:18.351Z,62.60
2023-02-12T17:52:07.548Z,81.40
2023-02-12T18:11:34.108Z,98.70
2023-02-12T18:15:23.280Z,89.40
2023-02-12T18:19:12.228Z,89.60
2023-02-12T18:23:02.499Z,91.00
2023-02-12T18:26:52.187Z,133.60
2023-02-12T18:30:41.797Z,54.60
2023-02-12T18:34:31.632Z,43.50
2023-02-12T18:38:21.831Z,46.80
2023-02-12T18:45:53.676Z,65.70
2023-02-12T18:49:38.987Z,44.10
2023-02-12T18:57:26.503Z,65.80
2023-02-12T19:01:16.670Z,71.50
2023-02-12T19:05:09.957Z,94.20
2023-02-12T19:09:00.491Z,127.70
2023-02-12T19:12:50.441Z,86.30
2023-02-12T19:16:40.804Z,47.30
2023-02-12T19:20:30.666Z,67.00
2023-02-12T19:24:19.880Z,62.80
2023-02-12T19:28:10.327Z,64.10
2023-02-12T19:31:53.401Z,62.20
2023-02-12T19:51:20.320Z,48.00
2023-02-12T19:55:08.067Z,53.10
2023-02-12T19:58:55.956Z,76.70
2023-02-12T20:02:44.075Z,71.70
2023-02-12T20:06:41.461Z,75.10
2023-02-12T20:10:32.050Z,76.40
2023-02-12T20:26:10.467Z,99.50
2023-02-12T20:29:59.719Z,106.40
2023-02-12T20:33:49.416Z,93.30
2023-02-12T20:37:39.869Z,86.70
2023-02-12T20:41:30.144Z,89.90
2023-02-12T20:45:21.175Z,90.90
2023-02-12T20:49:12.600Z,75.30
2023-02-12T20:53:02.397Z,72.70
2023-02-12T21:08:33.834Z,76.50
2023-02-12T21:12:23.077Z,81.10
2023-02-12T21:16:02.274Z,84.30
2023-02-12T21:19:51.567Z,86.40
2023-02-12T21:23:40.864Z,78.00
2023-02-12T21:27:30.021Z,68.20
2023-02-12T21:31:19.261Z,60.00
2023-02-12T21:35:08.942Z,42.90
2023-02-12T21:38:52.315Z,56.50
2023-02-12T21:42:40.188Z,64.60
2023-02-12T21:50:17.007Z,55.40
2023-02-12T21:54:07.024Z,67.70
2023-02-12T22:13:38.480Z,48.00
2023-02-12T22:17:27.677Z,40.70
2023-02-12T22:21:16.862Z,36.40
2023-02-12T22:25:06.373Z,35.80
2023-02-12T22:28:55.398Z,34.50
2023-02-12T22:32:48.222Z,41.50
2023-02-12T22:36:42.119Z,37.90
2023-02-12T22:40:32.145Z,35.50
2023-02-12T22:44:23.084Z,31.30
2023-02-12T22:48:14.138Z,31.40
2023-02-12T22:52:19.417Z,34.40
2023-02-12T23:23:14.715Z,38.80
2023-02-12T23:27:02.601Z,43.30
2023-02-12T23:30:50.367Z,44.40
2023-02-12T23:34:38.512Z,40.40
2023-02-12T23:38:26.414Z,38.60
2023-02-12T23:42:14.315Z,33.20
2023-02-12T23:46:02.884Z,51.40
2023-02-12T23:49:50.800Z,48.80
2023-02-12T23:53:38.370Z,50.20
2023-02-12T23:57:27.092Z,43.40
